Latest Weather Observations for Low Rocky Point

IDT60801

Issued at 3:31 pm EST Monday 29 May 2017 (issued every 30 minutes, with the page automatically refreshed every 10 minutes)

About weather observations | Map of weather stations | Latest weather observations for TAS | Other Formats
Station Details ID: 097080 Name: LOW ROCKY POINT Lat: -42.98 Lon: 145.50 Height: 34.0 m
Data from the previous 72 hours. | See also: Recent months at Low Rocky Point
Date/Time
EST
Temp
°C
App
Temp
°C
Dew
Point
°C
Rel
Hum
%
Delta-T
°C
Wind Press
QNH
hPa
Press
MSL
hPa
Rain since
9am
mm
Dir  Spd
km/h
Gust
km/h
Spd
kts
Gust
kts
29/03:30pm 11.0 2.9 6.9 76 1.9 NW 39 46 21 25 1011.8 1011.9 0.0
29/03:00pm 11.5 2.9 6.4 71 2.4 NW 41 52 22 28 1011.6 1011.7 0.0
29/02:30pm 11.6 3.7 6.1 69 2.6 NW 37 46 20 25 1011.6 1011.7 0.0
29/02:00pm 12.0 4.5 6.3 68 2.7 NW 35 44 19 24 1011.7 1011.7 0.0
29/01:30pm 11.4 3.9 6.1 70 2.5 WNW 35 44 19 24 1012.0 1012.1 0.0
29/01:00pm 11.6 4.5 6.3 70 2.5 NW 33 43 18 23 1012.0 1012.0 0.0
29/12:30pm 11.3 3.1 6.4 72 2.3 WNW 39 50 21 27 1012.0 1012.1 0.0
29/12:00pm 12.0 4.9 6.5 69 2.6 WNW 33 43 18 23 1012.1 1012.1 0.0
29/11:30am 10.8 3.8 6.2 73 2.1 WNW 32 41 17 22 1012.4 1012.5 0.0
29/11:00am 10.4 4.6 6.4 76 1.9 W 26 32 14 17 1012.5 1012.5 0.0
29/10:54am 10.1 3.1 6.1 76 1.9 W 32 50 17 27 1012.6 1012.7 0.0
29/10:30am 10.5 2.6 6.1 74 2.0 W 37 46 20 25 1012.4 1012.5 0.0
29/10:13am 10.7 3.6 6.3 74 2.1 W 33 52 18 28 1012.2 1012.3 0.0
29/10:00am 10.2 3.2 6.0 75 1.9 W 32 39 17 21 1012.2 1012.2 0.0
29/09:30am 10.3 2.3 5.7 73 2.1 WNW 37 46 20 25 1012.1 1012.2 0.0
29/09:00am 10.0 3.5 6.7 80 1.5 W 30 39 16 21 1011.9 1011.9 7.6
29/08:30am 9.4 2.6 7.0 85 1.1 W 32 39 17 21 1011.5 1011.6 7.6
29/08:00am 8.9 3.6 6.7 86 1.0 W 24 39 13 21 1011.2 1011.2 7.6
29/07:49am 8.8 2.3 6.4 85 1.1 W 30 48 16 26 1011.2 1011.3 7.4
29/07:30am 9.6 3.2 6.9 83 1.3 WSW 30 39 16 21 1010.8 1010.9 7.2
29/07:00am 8.9 3.9 6.5 85 1.1 WSW 22 33 12 18 1010.6 1010.6 7.2
29/06:30am 9.2 1.9 7.2 87 0.9 WSW 35 46 19 25 1010.2 1010.3 7.2
29/06:00am 9.1 2.3 6.9 86 1.0 W 32 39 17 21 1009.8 1009.8 7.2
29/05:30am 9.7 5.3 7.3 85 1.1 WSW 20 26 11 14 1009.4 1009.5 7.0
29/05:00am 9.4 4.6 7.3 87 1.0 WSW 22 32 12 17 1009.3 1009.3 7.0
29/04:30am 9.9 4.0 7.5 85 1.1 W 28 44 15 24 1009.1 1009.2 7.0
29/04:00am 8.9 3.1 6.2 83 1.2 WSW 26 41 14 22 1008.9 1008.9 7.0
29/03:30am 9.5 3.4 6.6 82 1.4 WSW 28 35 15 19 1008.7 1008.8 7.0
29/03:00am 9.7 2.9 6.8 82 1.4 W 32 39 17 21 1008.7 1008.7 7.0
29/02:30am 9.6 3.6 7.2 85 1.1 W 28 33 15 18 1008.5 1008.6 7.0
29/02:00am 9.0 2.9 6.8 86 1.0 WSW 28 39 15 21 1008.3 1008.3 7.0
29/01:30am 9.0 2.6 7.0 87 0.9 W 30 37 16 20 1008.0 1008.1 7.0
29/01:09am 9.6 3.6 7.2 85 1.1 WSW 28 52 15 28 1007.9 1008.0 6.8
29/01:00am 9.2 4.6 6.5 83 1.3 WSW 20 30 11 16 1008.0 1008.0 6.8
29/12:30am 8.8 3.3 5.7 81 1.4 WSW 24 35 13 19 1008.0 1008.1 6.8
29/12:00am 10.3 3.8 6.5 77 1.8 W 30 41 16 22 1007.6 1007.6 6.4
 
Date/Time
EST
Temp
°C
App
Temp
°C
Dew
Point
°C
Rel
Hum
%
Delta-T
°C
Wind Press
QNH
hPa
Press
MSL
hPa
Rain since
9am
mm
Dir  Spd
km/h
Gust
km/h
Spd
kts
Gust
kts
28/11:30pm 10.2 3.7 6.4 77 1.8 W 30 37 16 20 1007.6 1007.7 6.4
28/11:00pm 10.1 3.0 6.3 77 1.8 W 33 41 18 22 1007.4 1007.4 6.4
28/10:30pm 10.3 5.0 6.8 79 1.7 W 24 33 13 18 1007.2 1007.3 6.4
28/10:00pm 9.5 4.0 5.9 78 1.7 NW 24 32 13 17 1007.1 1007.1 6.4
28/09:30pm 9.9 4.1 6.1 77 1.8 WSW 26 33 14 18 1006.9 1006.9 6.4
28/09:00pm 9.6 3.7 6.0 78 1.7 WSW 26 37 14 20 1006.7 1006.7 6.4
28/08:30pm 10.2 4.3 5.8 74 2.0 W 26 33 14 18 1006.3 1006.3 6.4
28/08:17pm 9.6 3.2 5.0 73 2.1 W 28 46 15 25 1006.2 1006.2 6.4
28/08:00pm 10.3 4.0 5.9 74 2.0 WSW 28 33 15 18 1006.1 1006.1 6.4
28/07:30pm 10.2 4.3 5.6 73 2.1 WSW 26 32 14 17 1005.7 1005.7 6.4
28/07:00pm 10.1 3.8 5.9 75 1.9 WSW 28 35 15 19 1005.4 1005.4 6.4
28/06:30pm 10.0 4.6 6.2 77 1.8 WSW 24 30 13 16 1004.9 1004.9 6.4
28/06:00pm 9.9 5.7 5.5 74 2.0 WSW 17 28 9 15 1004.6 1004.6 6.4
28/05:30pm 10.2 5.1 6.0 75 1.9 WSW 22 28 12 15 1004.1 1004.1 6.4
28/05:00pm 10.2 5.1 6.2 76 1.9 WSW 22 32 12 17 1003.9 1003.9 6.4
28/04:30pm 10.3 5.3 6.6 78 1.7 SW 22 30 12 16 1003.6 1003.6 6.4
28/04:00pm 10.4 6.1 6.9 79 1.7 WSW 19 26 10 14 1003.1 1003.1 6.4
28/03:30pm 10.7 5.9 7.4 80 1.6 WSW 22 28 12 15 1002.8 1002.8 6.4
28/03:00pm 11.2 7.0 8.1 81 1.5 WSW 20 30 11 16 1002.5 1002.5 6.4
28/02:30pm 11.7 7.4 9.3 85 1.2 SW 22 33 12 18 1002.1 1002.1 6.4
28/02:00pm 11.5 7.2 9.4 87 1.1 SW 22 32 12 17 1001.9 1001.9 6.4
28/01:30pm 11.2 6.3 10.0 92 0.6 WSW 26 37 14 20 1001.6 1001.6 6.4
28/01:00pm 10.5 5.9 9.7 95 0.4 SW 24 37 13 20 1001.5 1001.5 6.4
28/12:30pm 10.2 5.6 9.6 96 0.3 SW 24 35 13 19 1001.5 1001.5 6.4
28/12:00pm 10.8 6.1 10.6 99 0.1 SW 26 35 14 19 1001.3 1001.3 6.4
28/11:30am 10.3 5.4 10.1 99 0.1 SW 26 35 14 19 1001.2 1001.2 6.4
28/11:00am 10.1 5.6 9.9 99 0.1 SW 24 32 13 17 1001.3 1001.3 6.2
28/10:30am 10.5 6.8 10.3 99 0.1 SW 20 32 11 17 1001.0 1001.0 6.0
28/10:00am 10.5 6.8 10.3 99 0.1 WSW 20 30 11 16 1000.8 1000.8 5.6
28/09:30am 10.7 7.3 10.5 99 0.1 W 19 22 10 12 1000.5 1000.5 1.6
28/09:00am 10.9 6.6 10.6 98 0.2 W 24 33 13 18 1000.3 1000.3 32.8
28/08:30am 10.5 7.0 10.2 98 0.2 NW 19 26 10 14 999.9 999.9 32.6
28/08:12am 11.2 6.2 10.9 98 0.2 W 28 46 15 25 999.8 999.8 30.6
28/08:00am 11.3 5.9 11.0 98 0.2 WNW 30 39 16 21 999.9 999.9 30.2
28/07:30am 10.6 5.4 10.3 98 0.2 WNW 28 44 15 24 999.7 999.7 30.0
28/07:00am 10.7 4.5 10.2 97 0.3 WNW 33 44 18 24 999.7 999.7 28.4
28/06:30am 11.3 6.3 11.0 98 0.2 WNW 28 35 15 19 999.6 999.6 28.2
28/06:00am 11.1 5.7 10.9 99 0.1 WNW 30 37 16 20 999.6 999.6 28.2
28/05:30am 10.7 6.3 10.5 99 0.1 NW 24 30 13 16 999.5 999.5 28.2
28/05:04am 11.3 5.4 11.1 99 0.1 NW 33 56 18 30 999.3 999.3 27.8
28/05:00am 11.3 6.0 11.1 99 0.1 NW 30 39 16 21 999.4 999.4 27.8
28/04:57am 11.2 5.5 11.0 99 0.1 WNW 32 39 17 21 999.4 999.4 27.8
28/04:30am 9.4 6.0 9.3 99 0.0 N 17 20 9 11 999.4 999.4 27.8
28/04:00am 10.0 5.5 9.9 99 0.1 NNW 24 32 13 17 999.6 999.6 27.8
28/03:30am 11.4 5.5 11.2 99 0.1 NW 33 43 18 23 999.7 999.7 27.2
28/03:00am 11.2 5.8 11.0 99 0.1 NW 30 35 16 19 999.8 999.8 26.8
28/02:30am 11.1 5.1 10.9 99 0.1 NW 33 43 18 23 1000.1 1000.1 26.4
28/02:00am 10.8 5.7 10.6 99 0.1 NW 28 32 15 17 1000.2 1000.2 26.2
28/01:30am 10.6 6.6 10.4 99 0.1 N 22 32 12 17 1000.4 1000.4 23.4
28/01:00am 10.7 7.1 10.5 99 0.1 NW 20 26 11 14 1000.8 1000.8 20.4
28/12:30am 10.3 5.1 10.1 99 0.1 N 28 39 15 21 1000.9 1000.9 15.6
28/12:00am 10.3 6.6 10.1 99 0.1 N 20 32 11 17 1001.4 1001.4 14.8
 
Date/Time
EST
Temp
°C
App
Temp
°C
Dew
Point
°C
Rel
Hum
%
Delta-T
°C
Wind Press
QNH
hPa
Press
MSL
hPa
Rain since
9am
mm
Dir  Spd
km/h
Gust
km/h
Spd
kts
Gust
kts
27/11:30pm 10.5 5.7 10.3 99 0.1 N 26 35 14 19 1001.8 1001.8 13.6
27/11:00pm 10.5 5.3 10.3 99 0.1 N 28 37 15 20 1001.6 1001.6 13.4
27/10:32pm 10.7 5.2 10.5 99 0.1 N 30 48 16 26 1002.1 1002.1 12.8
27/10:30pm 10.7 4.8 10.5 99 0.1 N 32 48 17 26 1002.0 1002.0 12.8
27/10:00pm 10.8 5.7 10.6 99 0.1 N 28 37 15 20 1002.1 1002.1 12.2
27/09:30pm 11.2 4.9 11.0 99 0.1 NNW 35 50 19 27 1002.7 1002.7 11.0
27/09:00pm 11.2 5.5 11.0 99 0.1 N 32 46 17 25 1002.8 1002.8 9.0
27/08:52pm 11.1 6.1 10.9 99 0.1 N 28 46 15 25 1002.7 1002.7 9.0
27/08:30pm 11.3 5.6 11.1 99 0.1 N 32 43 17 23 1002.8 1002.8 8.8
27/08:00pm 11.7 5.5 11.5 99 0.1 NNW 35 48 19 26 1003.0 1003.0 7.0
27/07:30pm 11.2 5.3 11.0 99 0.1 NNW 33 54 18 29 1003.1 1003.1 5.8
27/07:00pm 10.9 5.0 10.3 96 0.3 NNW 32 43 17 23 1003.2 1003.2 5.0
27/06:30pm 10.8 4.5 9.6 92 0.6 NNW 33 46 18 25 1003.4 1003.4 4.2
27/06:00pm 10.4 0.4 8.0 85 1.2 NNW 50 69 27 37 1003.9 1003.9 3.2
27/05:41pm 11.6 0.6 8.6 82 1.5 NW 56 83 30 45 1003.6 1003.6 1.0
27/05:39pm 11.8 1.2 8.6 81 1.6 NW 54 83 29 45 1003.5 1003.5 1.0
27/05:30pm 12.1 2.9 8.2 77 1.9 NW 46 69 25 37 1003.2 1003.2 0.2
27/05:26pm 13.0 4.4 8.9 76 2.1 NNW 44 69 24 37 1003.3 1003.3 0.2
27/05:25pm 13.4 4.9 9.3 76 2.1 NNW 44 69 24 37 1003.3 1003.3 0.2
27/05:00pm 14.8 8.1 11.0 78 2.0 NNW 37 57 20 31 1003.2 1003.2 0.2
27/04:30pm 15.0 6.6 11.2 78 2.0 NNW 46 65 25 35 1003.2 1003.2 0.2
27/04:00pm 15.4 5.6 11.4 77 2.2 NNW 54 72 29 39 1003.3 1003.3 0.2
27/03:33pm 15.4 5.2 11.4 77 2.1 NNW 56 74 30 40 1003.5 1003.5 0.2
27/03:30pm 15.4 5.2 11.4 77 2.1 NNW 56 72 30 39 1003.5 1003.5 0.2
27/03:00pm 15.8 5.6 11.4 75 2.4 NNW 56 76 30 41 1003.6 1003.6 0.2
27/02:30pm 16.4 7.7 11.3 72 2.8 NNW 48 67 26 36 1003.8 1003.8 0.0
27/02:11pm 16.1 8.2 10.8 71 2.8 NNW 43 61 23 33 1004.2 1004.2 0.0
27/02:00pm 16.7 8.9 11.0 69 3.1 NNW 43 57 23 31 1004.3 1004.3 0.0
27/01:32pm 16.3 9.1 10.6 69 3.0 NNW 39 59 21 32 1004.8 1004.8 0.0
27/01:30pm 16.3 9.5 10.6 69 3.0 NNW 37 52 20 28 1004.8 1004.8 0.0
27/01:00pm 17.1 8.8 11.4 69 3.1 NNW 46 67 25 36 1005.3 1005.3 0.0
27/12:30pm 16.4 8.1 11.3 72 2.8 NNW 46 65 25 35 1005.8 1005.8 0.0
27/12:00pm 16.2 8.3 11.4 73 2.6 NNW 44 67 24 36 1006.5 1006.5 0.0
27/11:30am 15.5 8.7 10.7 73 2.5 NNW 37 57 20 31 1007.3 1007.4 0.0
27/11:24am 15.5 9.2 10.9 74 2.4 NNW 35 54 19 29 1007.4 1007.5 0.0
27/11:00am 14.9 8.4 10.3 74 2.4 NNW 35 48 19 26 1007.7 1007.7 0.0
27/10:30am 14.9 7.6 10.1 73 2.5 NNW 39 59 21 32 1008.0 1008.1 0.0
27/10:04am 14.5 7.4 9.7 73 2.5 N 37 56 20 30 1008.3 1008.4 0.0
27/10:00am 14.4 7.7 9.6 73 2.5 N 35 50 19 27 1008.3 1008.3 0.0
27/09:30am 13.6 6.7 8.9 73 2.4 N 35 50 19 27 1008.5 1008.6 0.0
27/09:08am 13.6 5.9 8.7 72 2.5 N 39 57 21 31 1008.5 1008.6 0.0
27/09:00am 13.4 5.2 8.3 71 2.5 N 41 57 22 31 1008.6 1008.6 0.0
27/08:43am 13.1 5.2 8.0 71 2.5 N 39 57 21 31 1008.6 1008.7 0.0
27/08:30am 12.8 4.9 7.7 71 2.5 N 39 54 21 29 1008.9 1009.0 0.0
27/08:00am 12.2 4.6 7.5 73 2.3 N 37 56 20 30 1009.3 1009.3 0.0
27/07:30am 12.1 4.8 7.4 73 2.3 N 35 56 19 30 1009.4 1009.5 0.0
27/07:29am 12.0 4.7 7.3 73 2.3 N 35 56 19 30 1009.4 1009.5 0.0
27/07:00am 11.5 4.6 7.2 75 2.1 N 33 44 18 24 1009.9 1009.9 0.0
27/06:37am 11.2 3.8 6.7 74 2.1 N 35 54 19 29 1009.8 1009.9 0.0
27/06:30am 11.2 3.8 6.7 74 2.1 N 35 52 19 28 1009.7 1009.8 0.0
27/06:00am 11.1 3.3 6.6 74 2.1 N 37 52 20 28 1010.0 1010.0 0.0
27/05:32am 10.8 3.3 6.4 74 2.1 N 35 54 19 29 1010.4 1010.5 0.0
27/05:30am 10.8 3.3 6.4 74 2.1 N 35 50 19 27 1010.5 1010.6 0.0
27/05:00am 10.5 3.5 6.1 74 2.0 N 32 50 17 27 1011.4 1011.4 0.0
27/04:59am 10.5 3.9 6.1 74 2.0 N 30 50 16 27 1011.4 1011.5 0.0
27/04:30am 10.6 3.6 6.2 74 2.1 N 32 44 17 24 1011.7 1011.8 0.0
27/04:00am 10.8 3.3 6.2 73 2.1 N 35 46 19 25 1012.2 1012.2 0.0
27/03:30am 10.9 4.4 6.3 73 2.2 N 30 43 16 23 1012.6 1012.7 0.0
27/03:00am 10.8 3.8 6.2 73 2.1 N 32 48 17 26 1012.9 1012.9 0.0
27/02:30am 11.2 4.1 6.3 72 2.3 N 33 48 18 26 1013.1 1013.2 0.0
27/02:00am 11.2 3.6 5.9 70 2.5 N 35 48 19 26 1013.0 1013.0 0.0
27/01:50am 11.1 4.1 6.0 71 2.4 N 32 50 17 27 1013.1 1013.2 0.0
27/01:30am 11.0 4.0 6.0 71 2.3 N 32 41 17 22 1013.1 1013.2 0.0
27/01:00am 11.0 4.1 6.4 73 2.2 N 32 43 17 23 1013.3 1013.3 0.0
27/12:30am 10.8 4.3 6.4 74 2.1 N 30 41 16 22 1013.8 1013.9 0.0
27/12:00am 10.8 4.0 6.7 76 1.9 N 32 44 17 24 1014.2 1014.2 0.0
 
Date/Time
EST
Temp
°C
App
Temp
°C
Dew
Point
°C
Rel
Hum
%
Delta-T
°C
Wind Press
QNH
hPa
Press
MSL
hPa
Rain since
9am
mm
Dir  Spd
km/h
Gust
km/h
Spd
kts
Gust
kts
26/11:30pm 10.7 4.0 7.2 79 1.7 N 32 43 17 23 1014.5 1014.6 0.0
26/11:00pm 10.7 4.9 7.9 83 1.4 N 28 37 15 20 1014.9 1014.9 0.0
26/10:30pm 10.7 5.0 8.5 86 1.1 N 28 46 15 25 1015.4 1015.5 0.0
26/10:00pm 10.2 6.0 8.1 87 1.0 N 20 28 11 15 1015.8 1015.7 0.0
26/09:30pm 10.2 5.3 8.5 89 0.8 N 24 33 13 18 1016.1 1016.1 0.0
26/09:00pm 9.8 5.2 8.2 90 0.8 N 22 30 12 16 1016.2 1016.1 0.0
26/08:30pm 9.7 5.5 8.1 90 0.8 N 20 26 11 14 1016.3 1016.3 0.0
26/08:00pm 10.0 5.7 7.8 86 1.1 N 20 28 11 15 1016.4 1016.3 0.0
26/07:30pm 9.5 5.0 7.1 85 1.1 N 20 26 11 14 1016.6 1016.6 0.0
26/07:00pm 9.8 5.9 7.2 84 1.2 N 17 22 9 12 1016.8 1016.8 0.0
26/06:30pm 9.9 5.5 7.3 84 1.2 N 20 28 11 15 1016.9 1016.9 0.0
26/06:00pm 9.2 4.6 6.6 84 1.2 NNE 20 28 11 15 1016.8 1016.8 0.0
26/05:30pm 9.2 4.6 6.3 82 1.3 NNE 20 26 11 14 1016.8 1016.8 0.0
26/05:00pm 9.5 4.8 6.0 79 1.6 N 20 26 11 14 1016.8 1016.8 0.0
26/04:30pm 10.7 6.3 6.5 75 2.0 N 19 24 10 13 1016.8 1016.8 0.0
26/04:00pm 12.4 5.4 6.9 69 2.6 NW 33 44 18 24 1016.8 1016.8 0.0

Other Formats:

Comma delimited format used in spreadsheet applications
http://www.bom.gov.au/fwo/IDT60801/IDT60801.95961.axf

JavaScript Object Notation format (JSON) in row-major order
http://www.bom.gov.au/fwo/IDT60801/IDT60801.95961.json